sensor_id;sensor_type;location;lat;lon;timestamp;P1;durP1;ratioP1;P2;durP2;ratioP2
13609;SDS011;6876;50.788;4.940;2022-08-01T00:00:04;1.75;;;1.00;;
13609;SDS011;6876;50.788;4.940;2022-08-01T00:02:52;2.67;;;1.20;;
13609;SDS011;6876;50.788;4.940;2022-08-01T00:05:40;2.80;;;1.00;;
13609;SDS011;6876;50.788;4.940;2022-08-01T00:08:28;3.92;;;1.10;;
13609;SDS011;6876;50.788;4.940;2022-08-01T00:11:16;4.35;;;1.40;;
13609;SDS011;6876;50.788;4.940;2022-08-01T00:14:04;3.67;;;1.27;;
13609;SDS011;6876;50.788;4.940;2022-08-01T00:16:52;1.38;;;1.15;;
13609;SDS011;6876;50.788;4.940;2022-08-01T00:19:39;1.55;;;1.02;;
13609;SDS011;6876;50.788;4.940;2022-08-01T00:22:26;2.80;;;1.17;;
13609;SDS011;6876;50.788;4.940;2022-08-01T00:25:13;2.13;;;1.20;;
13609;SDS011;6876;50.788;4.940;2022-08-01T00:28:01;1.75;;;1.20;;
13609;SDS011;6876;50.788;4.940;2022-08-01T00:30:49;2.45;;;1.20;;
13609;SDS011;6876;50.788;4.940;2022-08-01T00:33:37;2.85;;;1.30;;
13609;SDS011;6876;50.788;4.940;2022-08-01T00:36:24;1.52;;;1.10;;
13609;SDS011;6876;50.788;4.940;2022-08-01T00:39:11;1.60;;;1.33;;
13609;SDS011;6876;50.788;4.940;2022-08-01T00:41:59;2.33;;;1.27;;
13609;SDS011;6876;50.788;4.940;2022-08-01T00:44:46;2.45;;;1.48;;
13609;SDS011;6876;50.788;4.940;2022-08-01T00:47:35;2.58;;;1.48;;
13609;SDS011;6876;50.788;4.940;2022-08-01T00:50:22;2.45;;;1.25;;
13609;SDS011;6876;50.788;4.940;2022-08-01T00:53:10;3.03;;;1.52;;
13609;SDS011;6876;50.788;4.940;2022-08-01T00:55:57;2.50;;;1.60;;
13609;SDS011;6876;50.788;4.940;2022-08-01T00:58:46;2.45;;;1.90;;
13609;SDS011;6876;50.788;4.940;2022-08-01T01:01:33;5.57;;;1.67;;
13609;SDS011;6876;50.788;4.940;2022-08-01T01:04:22;2.92;;;1.27;;
13609;SDS011;6876;50.788;4.940;2022-08-01T01:07:12;2.00;;;1.63;;
13609;SDS011;6876;50.788;4.940;2022-08-01T01:10:04;2.83;;;1.48;;
13609;SDS011;6876;50.788;4.940;2022-08-01T01:12:59;2.85;;;1.65;;
13609;SDS011;6876;50.788;4.940;2022-08-01T01:15:52;2.67;;;1.70;;
13609;SDS011;6876;50.788;4.940;2022-08-01T01:18:45;3.83;;;1.63;;
13609;SDS011;6876;50.788;4.940;2022-08-01T01:21:46;4.03;;;1.70;;
13609;SDS011;6876;50.788;4.940;2022-08-01T01:24:45;6.18;;;1.98;;
13609;SDS011;6876;50.788;4.940;2022-08-01T01:27:47;9.95;;;2.00;;
13609;SDS011;6876;50.788;4.940;2022-08-01T01:30:44;4.05;;;2.20;;
13609;SDS011;6876;50.788;4.940;2022-08-01T01:33:34;2.15;;;1.42;;
13609;SDS011;6876;50.788;4.940;2022-08-01T01:36:24;3.05;;;2.30;;
13609;SDS011;6876;50.788;4.940;2022-08-01T01:39:14;5.43;;;2.63;;
13609;SDS011;6876;50.788;4.940;2022-08-01T01:42:02;5.53;;;2.33;;
13609;SDS011;6876;50.788;4.940;2022-08-01T01:44:53;3.70;;;2.40;;
13609;SDS011;6876;50.788;4.940;2022-08-01T01:47:43;4.20;;;2.78;;
13609;SDS011;6876;50.788;4.940;2022-08-01T01:50:31;4.55;;;2.65;;
13609;SDS011;6876;50.788;4.940;2022-08-01T01:53:20;3.80;;;2.53;;
13609;SDS011;6876;50.788;4.940;2022-08-01T01:56:09;2.83;;;2.25;;
13609;SDS011;6876;50.788;4.940;2022-08-01T01:58:59;3.85;;;2.63;;
13609;SDS011;6876;50.788;4.940;2022-08-01T02:01:49;3.35;;;2.83;;
13609;SDS011;6876;50.788;4.940;2022-08-01T02:04:40;3.28;;;2.80;;
13609;SDS011;6876;50.788;4.940;2022-08-01T02:07:29;4.50;;;2.80;;
13609;SDS011;6876;50.788;4.940;2022-08-01T02:10:17;2.65;;;2.45;;
13609;SDS011;6876;50.788;4.940;2022-08-01T02:13:05;5.38;;;2.75;;
13609;SDS011;6876;50.788;4.940;2022-08-01T02:15:54;3.00;;;2.70;;
13609;SDS011;6876;50.788;4.940;2022-08-01T02:18:41;4.82;;;2.67;;
13609;SDS011;6876;50.788;4.940;2022-08-01T02:21:32;4.20;;;2.83;;
13609;SDS011;6876;50.788;4.940;2022-08-01T02:24:24;4.75;;;3.20;;
13609;SDS011;6876;50.788;4.940;2022-08-01T02:27:20;4.32;;;2.83;;
13609;SDS011;6876;50.788;4.940;2022-08-01T02:30:12;4.65;;;2.95;;
13609;SDS011;6876;50.788;4.940;2022-08-01T02:33:02;5.50;;;2.92;;
13609;SDS011;6876;50.788;4.940;2022-08-01T02:35:52;3.22;;;2.50;;
13609;SDS011;6876;50.788;4.940;2022-08-01T02:38:45;5.20;;;2.83;;
13609;SDS011;6876;50.788;4.940;2022-08-01T02:41:33;6.63;;;3.38;;
13609;SDS011;6876;50.788;4.940;2022-08-01T02:44:27;5.50;;;2.97;;
13609;SDS011;6876;50.788;4.940;2022-08-01T02:47:17;4.72;;;2.60;;
13609;SDS011;6876;50.788;4.940;2022-08-01T02:50:07;6.82;;;3.20;;
13609;SDS011;6876;50.788;4.940;2022-08-01T02:52:58;6.68;;;2.97;;
13609;SDS011;6876;50.788;4.940;2022-08-01T02:55:49;4.57;;;3.10;;
13609;SDS011;6876;50.788;4.940;2022-08-01T02:58:39;4.15;;;2.97;;
13609;SDS011;6876;50.788;4.940;2022-08-01T03:01:29;5.03;;;3.05;;
13609;SDS011;6876;50.788;4.940;2022-08-01T03:04:18;5.82;;;2.90;;
13609;SDS011;6876;50.788;4.940;2022-08-01T03:07:07;3.63;;;3.00;;
13609;SDS011;6876;50.788;4.940;2022-08-01T03:09:56;4.60;;;2.83;;
13609;SDS011;6876;50.788;4.940;2022-08-01T03:12:46;5.80;;;3.10;;
13609;SDS011;6876;50.788;4.940;2022-08-01T03:15:35;5.85;;;3.60;;
13609;SDS011;6876;50.788;4.940;2022-08-01T03:18:25;7.25;;;3.65;;
13609;SDS011;6876;50.788;4.940;2022-08-01T03:21:15;7.32;;;3.70;;
13609;SDS011;6876;50.788;4.940;2022-08-01T03:24:03;5.47;;;3.25;;
13609;SDS011;6876;50.788;4.940;2022-08-01T03:26:52;4.22;;;3.40;;
13609;SDS011;6876;50.788;4.940;2022-08-01T03:29:44;6.07;;;3.38;;
13609;SDS011;6876;50.788;4.940;2022-08-01T03:32:32;4.03;;;3.13;;
13609;SDS011;6876;50.788;4.940;2022-08-01T03:35:20;3.30;;;3.00;;
13609;SDS011;6876;50.788;4.940;2022-08-01T03:38:09;5.28;;;3.10;;
13609;SDS011;6876;50.788;4.940;2022-08-01T03:41:02;6.03;;;3.50;;
13609;SDS011;6876;50.788;4.940;2022-08-01T03:43:56;4.10;;;3.33;;
13609;SDS011;6876;50.788;4.940;2022-08-01T03:46:50;3.13;;;2.83;;
13609;SDS011;6876;50.788;4.940;2022-08-01T03:49:43;4.63;;;2.95;;
13609;SDS011;6876;50.788;4.940;2022-08-01T03:52:32;5.53;;;2.80;;
13609;SDS011;6876;50.788;4.940;2022-08-01T03:55:23;6.00;;;3.35;;
13609;SDS011;6876;50.788;4.940;2022-08-01T03:58:12;5.63;;;3.75;;
13609;SDS011;6876;50.788;4.940;2022-08-01T04:01:00;4.80;;;2.95;;
13609;SDS011;6876;50.788;4.940;2022-08-01T04:03:49;5.68;;;3.42;;
13609;SDS011;6876;50.788;4.940;2022-08-01T04:06:37;5.95;;;3.15;;
13609;SDS011;6876;50.788;4.940;2022-08-01T04:09:24;5.85;;;3.55;;
13609;SDS011;6876;50.788;4.940;2022-08-01T04:12:12;5.13;;;3.70;;
13609;SDS011;6876;50.788;4.940;2022-08-01T04:14:59;7.35;;;5.40;;
13609;SDS011;6876;50.788;4.940;2022-08-01T04:17:47;7.75;;;5.10;;
13609;SDS011;6876;50.788;4.940;2022-08-01T04:20:36;11.75;;;6.85;;
13609;SDS011;6876;50.788;4.940;2022-08-01T04:23:24;9.68;;;6.10;;
13609;SDS011;6876;50.788;4.940;2022-08-01T04:26:13;10.88;;;6.38;;
13609;SDS011;6876;50.788;4.940;2022-08-01T04:29:02;13.05;;;6.18;;
13609;SDS011;6876;50.788;4.940;2022-08-01T04:31:51;9.55;;;6.32;;
13609;SDS011;6876;50.788;4.940;2022-08-01T04:34:41;12.60;;;7.50;;
13609;SDS011;6876;50.788;4.940;2022-08-01T04:37:33;13.30;;;6.95;;
13609;SDS011;6876;50.788;4.940;2022-08-01T04:40:22;12.38;;;7.68;;
13609;SDS011;6876;50.788;4.940;2022-08-01T04:43:11;12.88;;;6.95;;
13609;SDS011;6876;50.788;4.940;2022-08-01T04:45:59;13.45;;;8.23;;
13609;SDS011;6876;50.788;4.940;2022-08-01T04:48:49;16.40;;;7.88;;
13609;SDS011;6876;50.788;4.940;2022-08-01T04:51:37;17.30;;;8.43;;
13609;SDS011;6876;50.788;4.940;2022-08-01T04:54:37;18.27;;;9.30;;
13609;SDS011;6876;50.788;4.940;2022-08-01T04:57:24;15.52;;;10.25;;
13609;SDS011;6876;50.788;4.940;2022-08-01T05:00:12;17.65;;;10.70;;
13609;SDS011;6876;50.788;4.940;2022-08-01T05:03:01;20.02;;;10.77;;
13609;SDS011;6876;50.788;4.940;2022-08-01T05:05:49;22.05;;;12.30;;
13609;SDS011;6876;50.788;4.940;2022-08-01T05:08:36;18.55;;;11.38;;
13609;SDS011;6876;50.788;4.940;2022-08-01T05:11:25;19.40;;;12.07;;
13609;SDS011;6876;50.788;4.940;2022-08-01T05:14:12;18.48;;;11.73;;
13609;SDS011;6876;50.788;4.940;2022-08-01T05:16:59;20.05;;;12.13;;
13609;SDS011;6876;50.788;4.940;2022-08-01T05:19:48;21.92;;;13.25;;
13609;SDS011;6876;50.788;4.940;2022-08-01T05:22:35;16.80;;;11.57;;
13609;SDS011;6876;50.788;4.940;2022-08-01T05:25:22;21.67;;;12.45;;
13609;SDS011;6876;50.788;4.940;2022-08-01T05:28:11;18.73;;;12.52;;
13609;SDS011;6876;50.788;4.940;2022-08-01T05:30:58;18.65;;;11.93;;
13609;SDS011;6876;50.788;4.940;2022-08-01T05:33:46;22.83;;;13.43;;
13609;SDS011;6876;50.788;4.940;2022-08-01T05:36:33;19.60;;;11.85;;
13609;SDS011;6876;50.788;4.940;2022-08-01T05:39:20;21.80;;;12.98;;
13609;SDS011;6876;50.788;4.940;2022-08-01T05:42:07;17.20;;;12.35;;
13609;SDS011;6876;50.788;4.940;2022-08-01T05:44:56;22.70;;;12.73;;
13609;SDS011;6876;50.788;4.940;2022-08-01T05:47:43;20.60;;;13.48;;
13609;SDS011;6876;50.788;4.940;2022-08-01T05:50:30;25.13;;;14.82;;
13609;SDS011;6876;50.788;4.940;2022-08-01T05:53:19;20.98;;;13.82;;
13609;SDS011;6876;50.788;4.940;2022-08-01T05:56:06;22.77;;;14.05;;
13609;SDS011;6876;50.788;4.940;2022-08-01T05:58:53;21.75;;;14.55;;
13609;SDS011;6876;50.788;4.940;2022-08-01T06:01:42;18.02;;;13.45;;
13609;SDS011;6876;50.788;4.940;2022-08-01T06:04:29;19.33;;;13.73;;
13609;SDS011;6876;50.788;4.940;2022-08-01T06:07:16;18.13;;;12.40;;
13609;SDS011;6876;50.788;4.940;2022-08-01T06:10:04;18.50;;;12.70;;
13609;SDS011;6876;50.788;4.940;2022-08-01T06:12:52;17.58;;;12.23;;
13609;SDS011;6876;50.788;4.940;2022-08-01T06:15:39;19.95;;;13.43;;
13609;SDS011;6876;50.788;4.940;2022-08-01T06:18:28;15.18;;;11.30;;
13609;SDS011;6876;50.788;4.940;2022-08-01T06:21:15;12.25;;;8.57;;
13609;SDS011;6876;50.788;4.940;2022-08-01T06:24:02;17.27;;;12.65;;
13609;SDS011;6876;50.788;4.940;2022-08-01T06:26:50;16.17;;;12.80;;
13609;SDS011;6876;50.788;4.940;2022-08-01T06:29:37;17.02;;;11.48;;
13609;SDS011;6876;50.788;4.940;2022-08-01T06:32:24;19.00;;;12.68;;
13609;SDS011;6876;50.788;4.940;2022-08-01T06:35:13;15.50;;;12.25;;
13609;SDS011;6876;50.788;4.940;2022-08-01T06:38:01;19.00;;;13.73;;
13609;SDS011;6876;50.788;4.940;2022-08-01T06:40:49;18.27;;;13.02;;
13609;SDS011;6876;50.788;4.940;2022-08-01T06:43:36;21.15;;;13.60;;
13609;SDS011;6876;50.788;4.940;2022-08-01T06:46:23;19.95;;;13.95;;
13609;SDS011;6876;50.788;4.940;2022-08-01T06:49:11;20.25;;;13.85;;
13609;SDS011;6876;50.788;4.940;2022-08-01T06:51:59;17.35;;;12.95;;
13609;SDS011;6876;50.788;4.940;2022-08-01T06:54:46;17.13;;;11.93;;
13609;SDS011;6876;50.788;4.940;2022-08-01T06:57:34;15.75;;;11.50;;
13609;SDS011;6876;50.788;4.940;2022-08-01T07:00:21;19.13;;;11.77;;
13609;SDS011;6876;50.788;4.940;2022-08-01T07:03:09;18.70;;;13.13;;
13609;SDS011;6876;50.788;4.940;2022-08-01T07:05:57;17.73;;;12.38;;
13609;SDS011;6876;50.788;4.940;2022-08-01T07:08:45;16.85;;;12.48;;
13609;SDS011;6876;50.788;4.940;2022-08-01T07:11:32;16.13;;;12.77;;
13609;SDS011;6876;50.788;4.940;2022-08-01T07:14:20;17.90;;;11.85;;
13609;SDS011;6876;50.788;4.940;2022-08-01T07:17:08;16.70;;;12.38;;
13609;SDS011;6876;50.788;4.940;2022-08-01T07:19:55;15.15;;;11.32;;
13609;SDS011;6876;50.788;4.940;2022-08-01T07:22:42;14.65;;;10.85;;
13609;SDS011;6876;50.788;4.940;2022-08-01T07:25:31;16.67;;;11.27;;
13609;SDS011;6876;50.788;4.940;2022-08-01T07:28:18;12.45;;;10.20;;
13609;SDS011;6876;50.788;4.940;2022-08-01T07:31:05;11.77;;;8.85;;
13609;SDS011;6876;50.788;4.940;2022-08-01T07:33:52;15.00;;;11.20;;
13609;SDS011;6876;50.788;4.940;2022-08-01T07:36:40;13.57;;;10.48;;
13609;SDS011;6876;50.788;4.940;2022-08-01T07:39:27;11.98;;;9.57;;
13609;SDS011;6876;50.788;4.940;2022-08-01T07:42:15;13.93;;;9.25;;
13609;SDS011;6876;50.788;4.940;2022-08-01T07:45:03;12.10;;;10.25;;
13609;SDS011;6876;50.788;4.940;2022-08-01T07:47:50;16.15;;;11.60;;
13609;SDS011;6876;50.788;4.940;2022-08-01T07:50:38;12.20;;;9.10;;
13609;SDS011;6876;50.788;4.940;2022-08-01T07:53:25;11.20;;;8.63;;
13609;SDS011;6876;50.788;4.940;2022-08-01T07:56:12;12.82;;;8.90;;
13609;SDS011;6876;50.788;4.940;2022-08-01T07:59:01;13.27;;;9.15;;
13609;SDS011;6876;50.788;4.940;2022-08-01T08:01:48;11.65;;;10.00;;
13609;SDS011;6876;50.788;4.940;2022-08-01T08:04:36;10.57;;;8.27;;
13609;SDS011;6876;50.788;4.940;2022-08-01T08:07:25;11.63;;;7.68;;
13609;SDS011;6876;50.788;4.940;2022-08-01T08:10:12;9.77;;;7.03;;
13609;SDS011;6876;50.788;4.940;2022-08-01T08:12:59;9.75;;;6.63;;
13609;SDS011;6876;50.788;4.940;2022-08-01T08:15:53;7.35;;;6.40;;
13609;SDS011;6876;50.788;4.940;2022-08-01T08:18:41;12.35;;;8.95;;
13609;SDS011;6876;50.788;4.940;2022-08-01T08:21:28;10.95;;;9.23;;
13609;SDS011;6876;50.788;4.940;2022-08-01T08:24:15;11.55;;;9.95;;
13609;SDS011;6876;50.788;4.940;2022-08-01T08:27:05;8.65;;;7.13;;
13609;SDS011;6876;50.788;4.940;2022-08-01T08:29:53;9.85;;;8.88;;
13609;SDS011;6876;50.788;4.940;2022-08-01T08:32:42;11.90;;;9.18;;
13609;SDS011;6876;50.788;4.940;2022-08-01T08:35:29;11.57;;;9.02;;
13609;SDS011;6876;50.788;4.940;2022-08-01T08:38:16;11.52;;;8.10;;
13609;SDS011;6876;50.788;4.940;2022-08-01T08:41:04;8.45;;;7.65;;
13609;SDS011;6876;50.788;4.940;2022-08-01T08:43:51;13.10;;;9.23;;
13609;SDS011;6876;50.788;4.940;2022-08-01T08:46:40;12.40;;;8.43;;
13609;SDS011;6876;50.788;4.940;2022-08-01T08:49:30;10.32;;;8.75;;
13609;SDS011;6876;50.788;4.940;2022-08-01T08:52:18;7.30;;;6.13;;
13609;SDS011;6876;50.788;4.940;2022-08-01T08:55:07;7.93;;;6.90;;
13609;SDS011;6876;50.788;4.940;2022-08-01T08:57:57;6.50;;;5.93;;
13609;SDS011;6876;50.788;4.940;2022-08-01T09:00:45;8.18;;;7.38;;
13609;SDS011;6876;50.788;4.940;2022-08-01T09:03:34;8.75;;;7.03;;
13609;SDS011;6876;50.788;4.940;2022-08-01T09:06:22;8.70;;;6.95;;
13609;SDS011;6876;50.788;4.940;2022-08-01T09:09:10;7.57;;;5.65;;
13609;SDS011;6876;50.788;4.940;2022-08-01T09:11:57;5.82;;;5.30;;
13609;SDS011;6876;50.788;4.940;2022-08-01T09:14:45;5.35;;;4.85;;
13609;SDS011;6876;50.788;4.940;2022-08-01T09:17:41;7.63;;;5.78;;
13609;SDS011;6876;50.788;4.940;2022-08-01T09:20:28;6.07;;;5.47;;
13609;SDS011;6876;50.788;4.940;2022-08-01T09:26:21;6.78;;;4.70;;
13609;SDS011;6876;50.788;4.940;2022-08-01T09:29:17;5.82;;;5.05;;
13609;SDS011;6876;50.788;4.940;2022-08-01T09:32:06;4.43;;;3.92;;
13609;SDS011;6876;50.788;4.940;2022-08-01T09:34:53;4.90;;;3.72;;
13609;SDS011;6876;50.788;4.940;2022-08-01T09:37:41;4.45;;;4.05;;
13609;SDS011;6876;50.788;4.940;2022-08-01T09:43:32;3.80;;;3.38;;
13609;SDS011;6876;50.788;4.940;2022-08-01T09:46:20;5.10;;;3.30;;
13609;SDS011;6876;50.788;4.940;2022-08-01T09:49:07;4.07;;;2.83;;
13609;SDS011;6876;50.788;4.940;2022-08-01T09:51:54;2.30;;;2.10;;
13609;SDS011;6876;50.788;4.940;2022-08-01T09:54:43;3.65;;;2.10;;
13609;SDS011;6876;50.788;4.940;2022-08-01T09:57:39;4.75;;;2.35;;
13609;SDS011;6876;50.788;4.940;2022-08-01T10:00:40;3.65;;;2.20;;
13609;SDS011;6876;50.788;4.940;2022-08-01T10:03:28;2.38;;;1.95;;
13609;SDS011;6876;50.788;4.940;2022-08-01T10:06:18;3.38;;;1.90;;
13609;SDS011;6876;50.788;4.940;2022-08-01T10:09:06;4.03;;;2.13;;
13609;SDS011;6876;50.788;4.940;2022-08-01T10:11:54;1.73;;;1.60;;
13609;SDS011;6876;50.788;4.940;2022-08-01T10:14:43;3.83;;;1.88;;
13609;SDS011;6876;50.788;4.940;2022-08-01T10:17:32;1.90;;;1.75;;
13609;SDS011;6876;50.788;4.940;2022-08-01T10:20:24;2.20;;;2.00;;
13609;SDS011;6876;50.788;4.940;2022-08-01T10:23:12;2.88;;;2.15;;
13609;SDS011;6876;50.788;4.940;2022-08-01T10:26:00;3.50;;;2.00;;
13609;SDS011;6876;50.788;4.940;2022-08-01T10:28:49;2.40;;;2.20;;
13609;SDS011;6876;50.788;4.940;2022-08-01T10:31:39;2.20;;;2.00;;
13609;SDS011;6876;50.788;4.940;2022-08-01T10:34:26;2.13;;;1.92;;
13609;SDS011;6876;50.788;4.940;2022-08-01T10:37:16;2.20;;;1.85;;
13609;SDS011;6876;50.788;4.940;2022-08-01T10:40:03;4.07;;;2.30;;
13609;SDS011;6876;50.788;4.940;2022-08-01T10:42:52;2.25;;;2.00;;
13609;SDS011;6876;50.788;4.940;2022-08-01T10:45:40;2.20;;;2.00;;
13609;SDS011;6876;50.788;4.940;2022-08-01T10:48:31;2.42;;;2.10;;
13609;SDS011;6876;50.788;4.940;2022-08-01T10:51:25;2.63;;;2.30;;
13609;SDS011;6876;50.788;4.940;2022-08-01T10:54:14;2.03;;;1.92;;
13609;SDS011;6876;50.788;4.940;2022-08-01T10:57:01;2.28;;;1.70;;
13609;SDS011;6876;50.788;4.940;2022-08-01T10:59:50;2.10;;;2.00;;
13609;SDS011;6876;50.788;4.940;2022-08-01T11:02:38;1.95;;;1.85;;
13609;SDS011;6876;50.788;4.940;2022-08-01T11:05:32;2.47;;;2.20;;
13609;SDS011;6876;50.788;4.940;2022-08-01T11:08:21;3.20;;;1.80;;
13609;SDS011;6876;50.788;4.940;2022-08-01T11:11:10;4.28;;;2.20;;
13609;SDS011;6876;50.788;4.940;2022-08-01T11:14:01;3.58;;;2.22;;
13609;SDS011;6876;50.788;4.940;2022-08-01T11:16:52;2.13;;;1.90;;
13609;SDS011;6876;50.788;4.940;2022-08-01T11:26:15;2.40;;;2.20;;
13609;SDS011;6876;50.788;4.940;2022-08-01T11:29:13;2.38;;;2.17;;
13609;SDS011;6876;50.788;4.940;2022-08-01T11:35:11;2.40;;;2.20;;
13609;SDS011;6876;50.788;4.940;2022-08-01T11:41:21;3.53;;;1.90;;
13609;SDS011;6876;50.788;4.940;2022-08-01T11:44:11;1.70;;;1.60;;
13609;SDS011;6876;50.788;4.940;2022-08-01T11:47:01;3.60;;;1.83;;
13609;SDS011;6876;50.788;4.940;2022-08-01T11:49:49;4.03;;;1.88;;
13609;SDS011;6876;50.788;4.940;2022-08-01T11:52:40;1.92;;;1.73;;
13609;SDS011;6876;50.788;4.940;2022-08-01T11:55:28;1.80;;;1.70;;
13609;SDS011;6876;50.788;4.940;2022-08-01T11:58:20;2.47;;;1.60;;
13609;SDS011;6876;50.788;4.940;2022-08-01T12:01:11;1.90;;;1.80;;
13609;SDS011;6876;50.788;4.940;2022-08-01T12:04:00;4.72;;;1.60;;
13609;SDS011;6876;50.788;4.940;2022-08-01T12:06:47;5.57;;;1.85;;
13609;SDS011;6876;50.788;4.940;2022-08-01T12:09:34;1.58;;;1.48;;
13609;SDS011;6876;50.788;4.940;2022-08-01T12:12:21;1.65;;;1.52;;
13609;SDS011;6876;50.788;4.940;2022-08-01T12:15:10;3.63;;;2.05;;
13609;SDS011;6876;50.788;4.940;2022-08-01T12:17:59;1.92;;;1.60;;
13609;SDS011;6876;50.788;4.940;2022-08-01T12:20:47;3.10;;;1.55;;
13609;SDS011;6876;50.788;4.940;2022-08-01T12:23:34;1.70;;;1.58;;
13609;SDS011;6876;50.788;4.940;2022-08-01T12:26:21;3.03;;;2.00;;
13609;SDS011;6876;50.788;4.940;2022-08-01T12:29:09;2.95;;;1.60;;
13609;SDS011;6876;50.788;4.940;2022-08-01T12:31:57;1.98;;;1.73;;
13609;SDS011;6876;50.788;4.940;2022-08-01T12:34:45;1.50;;;1.40;;
13609;SDS011;6876;50.788;4.940;2022-08-01T12:37:32;1.70;;;1.60;;
13609;SDS011;6876;50.788;4.940;2022-08-01T12:40:23;1.70;;;1.60;;
13609;SDS011;6876;50.788;4.940;2022-08-01T12:43:15;24.15;;;5.38;;
13609;SDS011;6876;50.788;4.940;2022-08-01T12:46:04;2.80;;;1.70;;
13609;SDS011;6876;50.788;4.940;2022-08-01T12:48:55;5.85;;;1.73;;
13609;SDS011;6876;50.788;4.940;2022-08-01T12:51:42;2.85;;;1.48;;
13609;SDS011;6876;50.788;4.940;2022-08-01T12:54:30;2.25;;;1.52;;
13609;SDS011;6876;50.788;4.940;2022-08-01T12:57:23;1.98;;;1.58;;
13609;SDS011;6876;50.788;4.940;2022-08-01T13:00:12;4.00;;;1.50;;
13609;SDS011;6876;50.788;4.940;2022-08-01T13:03:03;2.47;;;1.70;;
13609;SDS011;6876;50.788;4.940;2022-08-01T13:05:53;4.45;;;1.67;;
13609;SDS011;6876;50.788;4.940;2022-08-01T13:08:41;3.95;;;1.70;;
13609;SDS011;6876;50.788;4.940;2022-08-01T13:11:28;1.63;;;1.50;;
13609;SDS011;6876;50.788;4.940;2022-08-01T13:14:26;7.60;;;1.65;;
13609;SDS011;6876;50.788;4.940;2022-08-01T13:17:29;11.98;;;2.88;;
13609;SDS011;6876;50.788;4.940;2022-08-01T13:20:28;3.45;;;1.58;;
13609;SDS011;6876;50.788;4.940;2022-08-01T13:23:19;2.97;;;1.70;;
13609;SDS011;6876;50.788;4.940;2022-08-01T13:26:06;2.08;;;1.38;;
13609;SDS011;6876;50.788;4.940;2022-08-01T13:29:03;1.50;;;1.30;;
13609;SDS011;6876;50.788;4.940;2022-08-01T13:31:50;1.80;;;0.90;;
13609;SDS011;6876;50.788;4.940;2022-08-01T13:34:38;2.55;;;1.42;;
13609;SDS011;6876;50.788;4.940;2022-08-01T13:37:25;2.00;;;1.08;;
13609;SDS011;6876;50.788;4.940;2022-08-01T13:40:22;1.38;;;1.27;;
13609;SDS011;6876;50.788;4.940;2022-08-01T13:43:11;3.20;;;1.00;;
13609;SDS011;6876;50.788;4.940;2022-08-01T13:45:58;1.90;;;1.00;;
13609;SDS011;6876;50.788;4.940;2022-08-01T13:48:45;2.13;;;1.23;;
13609;SDS011;6876;50.788;4.940;2022-08-01T13:51:32;5.63;;;1.20;;
13609;SDS011;6876;50.788;4.940;2022-08-01T13:54:20;4.10;;;1.20;;
13609;SDS011;6876;50.788;4.940;2022-08-01T13:57:10;116.78;;;10.95;;
13609;SDS011;6876;50.788;4.940;2022-08-01T13:59:57;3.10;;;1.10;;
13609;SDS011;6876;50.788;4.940;2022-08-01T14:02:45;3.38;;;1.50;;
13609;SDS011;6876;50.788;4.940;2022-08-01T14:05:32;4.43;;;1.55;;
13609;SDS011;6876;50.788;4.940;2022-08-01T14:08:19;3.53;;;1.35;;
13609;SDS011;6876;50.788;4.940;2022-08-01T14:11:07;24.27;;;3.50;;
13609;SDS011;6876;50.788;4.940;2022-08-01T14:13:55;4.50;;;1.20;;
13609;SDS011;6876;50.788;4.940;2022-08-01T14:16:42;2.15;;;1.02;;
13609;SDS011;6876;50.788;4.940;2022-08-01T14:19:31;2.38;;;1.00;;
13609;SDS011;6876;50.788;4.940;2022-08-01T14:22:18;1.77;;;1.30;;
13609;SDS011;6876;50.788;4.940;2022-08-01T14:25:06;1.60;;;1.20;;
13609;SDS011;6876;50.788;4.940;2022-08-01T14:27:53;3.08;;;1.40;;
13609;SDS011;6876;50.788;4.940;2022-08-01T14:30:42;2.70;;;1.02;;
13609;SDS011;6876;50.788;4.940;2022-08-01T14:33:29;1.13;;;1.02;;
13609;SDS011;6876;50.788;4.940;2022-08-01T14:36:17;5.82;;;1.02;;
13609;SDS011;6876;50.788;4.940;2022-08-01T14:39:04;3.05;;;1.05;;
13609;SDS011;6876;50.788;4.940;2022-08-01T14:41:51;2.13;;;1.15;;
13609;SDS011;6876;50.788;4.940;2022-08-01T14:44:39;1.30;;;1.02;;
13609;SDS011;6876;50.788;4.940;2022-08-01T14:47:27;1.65;;;1.00;;
13609;SDS011;6876;50.788;4.940;2022-08-01T14:50:15;2.42;;;1.10;;
13609;SDS011;6876;50.788;4.940;2022-08-01T14:53:02;2.10;;;0.93;;
13609;SDS011;6876;50.788;4.940;2022-08-01T14:55:50;1.88;;;1.00;;
13609;SDS011;6876;50.788;4.940;2022-08-01T14:58:37;2.65;;;0.90;;
13609;SDS011;6876;50.788;4.940;2022-08-01T15:01:24;2.05;;;0.80;;
13609;SDS011;6876;50.788;4.940;2022-08-01T15:04:13;1.08;;;0.90;;
13609;SDS011;6876;50.788;4.940;2022-08-01T15:07:00;1.48;;;1.00;;
13609;SDS011;6876;50.788;4.940;2022-08-01T15:09:47;1.50;;;1.30;;
13609;SDS011;6876;50.788;4.940;2022-08-01T15:12:34;2.50;;;1.30;;
13609;SDS011;6876;50.788;4.940;2022-08-01T15:15:22;1.27;;;1.02;;
13609;SDS011;6876;50.788;4.940;2022-08-01T15:18:10;1.92;;;0.90;;
13609;SDS011;6876;50.788;4.940;2022-08-01T15:20:59;2.97;;;1.23;;
13609;SDS011;6876;50.788;4.940;2022-08-01T15:23:46;1.73;;;0.90;;
13609;SDS011;6876;50.788;4.940;2022-08-01T15:26:33;2.50;;;0.90;;
13609;SDS011;6876;50.788;4.940;2022-08-01T15:29:20;1.67;;;1.00;;
13609;SDS011;6876;50.788;4.940;2022-08-01T15:32:08;1.95;;;0.90;;
13609;SDS011;6876;50.788;4.940;2022-08-01T15:34:56;14.75;;;1.40;;
13609;SDS011;6876;50.788;4.940;2022-08-01T15:37:44;2.70;;;1.00;;
13609;SDS011;6876;50.788;4.940;2022-08-01T15:40:31;1.33;;;1.20;;
13609;SDS011;6876;50.788;4.940;2022-08-01T15:43:19;3.60;;;1.30;;
13609;SDS011;6876;50.788;4.940;2022-08-01T15:46:06;3.08;;;1.00;;
13609;SDS011;6876;50.788;4.940;2022-08-01T15:48:54;3.42;;;1.40;;
13609;SDS011;6876;50.788;4.940;2022-08-01T15:51:41;2.05;;;1.15;;
13609;SDS011;6876;50.788;4.940;2022-08-01T15:54:30;2.03;;;1.10;;
13609;SDS011;6876;50.788;4.940;2022-08-01T15:57:17;0.88;;;0.88;;
13609;SDS011;6876;50.788;4.940;2022-08-01T16:00:05;2.22;;;0.90;;
13609;SDS011;6876;50.788;4.940;2022-08-01T16:02:53;1.70;;;0.90;;
13609;SDS011;6876;50.788;4.940;2022-08-01T16:05:41;1.27;;;1.10;;
13609;SDS011;6876;50.788;4.940;2022-08-01T16:08:29;3.33;;;1.00;;
13609;SDS011;6876;50.788;4.940;2022-08-01T16:11:17;1.75;;;0.98;;
13609;SDS011;6876;50.788;4.940;2022-08-01T16:14:04;1.63;;;1.00;;
13609;SDS011;6876;50.788;4.940;2022-08-01T16:16:52;1.38;;;0.98;;
13609;SDS011;6876;50.788;4.940;2022-08-01T16:19:39;1.35;;;1.20;;
13609;SDS011;6876;50.788;4.940;2022-08-01T16:22:29;2.25;;;0.93;;
13609;SDS011;6876;50.788;4.940;2022-08-01T16:25:16;2.85;;;1.05;;
13609;SDS011;6876;50.788;4.940;2022-08-01T16:28:05;1.58;;;0.93;;
13609;SDS011;6876;50.788;4.940;2022-08-01T16:30:54;1.42;;;1.10;;
13609;SDS011;6876;50.788;4.940;2022-08-01T16:33:41;1.15;;;0.88;;
13609;SDS011;6876;50.788;4.940;2022-08-01T16:36:28;2.13;;;0.80;;
13609;SDS011;6876;50.788;4.940;2022-08-01T16:39:16;1.48;;;1.10;;
13609;SDS011;6876;50.788;4.940;2022-08-01T16:42:03;1.67;;;1.20;;
13609;SDS011;6876;50.788;4.940;2022-08-01T16:44:52;2.47;;;1.02;;
13609;SDS011;6876;50.788;4.940;2022-08-01T16:47:39;1.10;;;1.02;;
13609;SDS011;6876;50.788;4.940;2022-08-01T16:50:27;2.80;;;1.13;;
13609;SDS011;6876;50.788;4.940;2022-08-01T16:53:15;6.82;;;1.17;;
13609;SDS011;6876;50.788;4.940;2022-08-01T16:56:02;2.70;;;1.00;;
13609;SDS011;6876;50.788;4.940;2022-08-01T16:58:50;2.00;;;1.30;;
13609;SDS011;6876;50.788;4.940;2022-08-01T17:01:38;1.35;;;1.00;;
13609;SDS011;6876;50.788;4.940;2022-08-01T17:04:26;0.90;;;0.90;;
13609;SDS011;6876;50.788;4.940;2022-08-01T17:07:13;2.28;;;1.30;;
13609;SDS011;6876;50.788;4.940;2022-08-01T17:10:00;1.00;;;0.90;;
13609;SDS011;6876;50.788;4.940;2022-08-01T17:12:48;3.42;;;1.10;;
13609;SDS011;6876;50.788;4.940;2022-08-01T17:15:35;2.60;;;1.00;;
13609;SDS011;6876;50.788;4.940;2022-08-01T17:18:25;3.70;;;1.00;;
13609;SDS011;6876;50.788;4.940;2022-08-01T17:21:13;1.10;;;1.00;;
13609;SDS011;6876;50.788;4.940;2022-08-01T17:24:00;1.10;;;1.00;;